Airfield :
LOGIN :

Register | Disclaimer

   EN    FR    IT 

 










Legend :    VFR   Marginal VFR   IFR   Intensive IFR   Very Intensive IFR
Visi :
Ceiling :
>= 8 km
>= 3000ft
5 to 8 km
1000 to 3000 ft
1500m to 5 km
500 to 1000 ft
800 to 1500m
200 to 500 ft
< 800m
< 200 ft
Symbols :   Thunderstorms  Fog  Heavy snow  Heavy precipitations  Wind > 20 kt
SIGMETs :     Misc.  Thunderstorms  Icing  Turbulence  Mountain Waves  Volcanic Ashes






- Airport Elevation : 83 ft
- IATA code : LHR


EGLL - London Heathrow

CURRENT METAR :
  • 170420Z 32001KT 2000 0300SW R27R/P1500 BR BCFG SCT000 02/02 Q1009 TEMPO 1200

EXPIRED METARs :
  • 170350Z 28001KT 4000 0800W BR BCFG SCT000 03/03 Q1009 TEMPO 1200
  • 170320Z 27001KT 4000 0800SW BR BCFG SCT000 03/03 Q1009 TEMPO 1200
  • 170250Z AUTO 13001KT 2600 BR NCD 03/03 Q1009
  • 170220Z 13001KT 4000 BR NSC 03/03 Q1009
  • 170150Z 00000KT 4000 BR NSC 03/03 Q1009 NOSIG

TAF AMD TAF EGLL
Valid from the 17 at 02:00 until the 18 at 06:00 UTC


170240Z 1702/1806 04006KT 7000 SCT030
BECMG 1702/1704 4000 BR
PROB40
TEMPO 1703/1709 0300 FG VV///
BECMG 1709/1712 9999 NSW
TEMPO 1719/1806 7000 BKN009
PROB40
TEMPO 1722/1804 3000 BR -RADZ BKN004
BECMG 1802/1805 34010KT



MET'MAP, your aeronautical weather chart ! - Copyright ORBIFLY December 2007 - Disclaimer

ORBIFLY MET'MAP TEAM :

Programming & Development : Alexandra Zaïnal
Concept & Development : Baudouin d'Aumeries
Co-Development & Prog : Marc-Olivier Méhu
Technical & hardware support : Manuel Goepfert

Contact : metmap@orbifly.com




SOURCES & CREDITS :

   NOAA